Tweets

Valley Met

METAR
EGOV 292050Z AUTO 25013KT 9999 BKN045/// 10/05 Q1009

Gallery

Expand all | Collapse all


Chris’s Daily Photo

Subscribe to:

FourFax Stats

  • Total Stats
    • 312 Posts
    • 158 Comments
    • 48 Comment Posters
    • 28 Links
    • 7 Post Categories
    • 4 Link Categories

Archives